createdAt,value
2019-04-28T00:00:55.174Z,102368.65
2019-04-28T00:03:24.543Z,102376.50
2019-04-28T00:05:53.910Z,102376.98
2019-04-28T00:08:23.268Z,102380.52
2019-04-28T00:10:53.357Z,102389.20
2019-04-28T00:13:22.880Z,102402.70
2019-04-28T00:15:52.381Z,102396.21
2019-04-28T00:18:22.067Z,102403.19
2019-04-28T00:21:06.540Z,102397.56
2019-04-28T00:24:01.723Z,102401.04
2019-04-28T00:26:51.919Z,102402.78
2019-04-28T00:29:21.241Z,102399.80
2019-04-28T00:31:51.268Z,102383.78
2019-04-28T00:34:21.366Z,102395.51
2019-04-28T00:36:56.184Z,102394.68
2019-04-28T00:39:25.555Z,102400.33
2019-04-28T00:41:54.923Z,102389.97
2019-04-28T00:44:24.828Z,102396.47
2019-04-28T00:46:54.181Z,102396.05
2019-04-28T00:49:42.001Z,102390.45
2019-04-28T00:52:11.370Z,102386.16
2019-04-28T00:54:42.087Z,102387.47
2019-04-28T00:57:11.526Z,102384.44
2019-04-28T00:59:52.073Z,102377.55
2019-04-28T01:02:50.983Z,102384.53
2019-04-28T01:05:21.340Z,102393.64
2019-04-28T01:07:51.162Z,102404.11
2019-04-28T01:10:21.860Z,102387.19
2019-04-28T01:12:51.206Z,102384.59
2019-04-28T01:15:37.096Z,102389.84
2019-04-28T01:18:16.254Z,102382.05
2019-04-28T01:20:45.724Z,102385.56
2019-04-28T01:23:15.115Z,102376.89
2019-04-28T01:25:44.479Z,102388.17
2019-04-28T01:28:13.809Z,102404.22
2019-04-28T01:31:05.999Z,102387.35
2019-04-28T01:33:59.893Z,102394.34
2019-04-28T01:36:30.165Z,102403.89
2019-04-28T01:38:59.997Z,102402.20
2019-04-28T01:41:29.727Z,102417.39
2019-04-28T01:44:00.169Z,102428.70
2019-04-28T01:46:29.881Z,102420.47
2019-04-28T01:48:59.902Z,102418.73
2019-04-28T01:51:30.492Z,102418.73
2019-04-28T01:54:00.230Z,102423.12
2019-04-28T01:56:30.418Z,102421.00
2019-04-28T01:59:00.353Z,102434.00
2019-04-28T02:01:30.292Z,102433.18
2019-04-28T02:04:00.231Z,102436.66
2019-04-28T02:06:30.055Z,102445.77
2019-04-28T02:09:00.861Z,102447.06
2019-04-28T02:11:30.447Z,102445.38
2019-04-28T02:13:59.871Z,102443.64
2019-04-28T02:16:29.699Z,102447.11
2019-04-28T02:18:59.825Z,102443.69
2019-04-28T02:22:00.384Z,102448.89
2019-04-28T02:24:31.250Z,102449.33
2019-04-28T02:27:01.202Z,102459.30
2019-04-28T02:29:30.542Z,102460.20
2019-04-28T02:32:02.139Z,102466.72
2019-04-28T02:34:31.444Z,102471.92
2019-04-28T02:37:01.746Z,102473.66
2019-04-28T02:39:31.653Z,102470.66
2019-04-28T02:42:01.743Z,102471.53
2019-04-28T02:44:34.697Z,102479.33
2019-04-28T02:47:02.419Z,102476.30
2019-04-28T02:49:50.384Z,102477.17
2019-04-28T02:52:41.758Z,102476.34
2019-04-28T02:55:11.394Z,102483.28
2019-04-28T02:57:40.890Z,102496.29
2019-04-28T03:00:10.542Z,102482.45
2019-04-28T03:02:41.451Z,102478.98
2019-04-28T03:05:11.844Z,102483.32
2019-04-28T03:07:41.319Z,102477.69
2019-04-28T03:10:11.308Z,102483.75
2019-04-28T03:12:41.549Z,102479.86
2019-04-28T03:15:11.200Z,102486.78
2019-04-28T03:17:41.033Z,102488.52
2019-04-28T03:20:11.113Z,102483.75
2019-04-28T03:22:41.180Z,102482.45
2019-04-28T03:25:15.916Z,102482.84
2019-04-28T03:28:05.993Z,102464.64
2019-04-28T03:30:54.065Z,102471.14
2019-04-28T03:33:25.401Z,102462.04
2019-04-28T03:35:54.839Z,102458.56
2019-04-28T03:38:24.170Z,102449.02
2019-04-28T03:40:53.509Z,102453.76
2019-04-28T03:43:22.921Z,102453.36
2019-04-28T03:45:57.206Z,102455.10
2019-04-28T03:48:26.622Z,102453.80
2019-04-28T03:50:55.965Z,102469.37
2019-04-28T03:53:25.330Z,102461.13
2019-04-28T03:55:54.660Z,102465.06
2019-04-28T03:58:24.446Z,102468.53
2019-04-28T04:00:53.920Z,102477.64
2019-04-28T04:03:23.280Z,102475.88
2019-04-28T04:05:52.631Z,102470.66
2019-04-28T04:08:21.960Z,102478.90
2019-04-28T04:11:12.082Z,102476.30
2019-04-28T04:14:03.293Z,102471.96
2019-04-28T04:16:42.560Z,102467.63
2019-04-28T04:19:12.693Z,102466.77
2019-04-28T04:21:42.020Z,102480.63
2019-04-28T04:24:11.381Z,102482.36
2019-04-28T04:26:41.141Z,102464.55
2019-04-28T04:29:10.782Z,102468.02
2019-04-28T04:31:41.317Z,102472.35
2019-04-28T04:34:10.959Z,102470.17
2019-04-28T04:36:41.707Z,102467.97
2019-04-28T04:39:11.452Z,102477.08
2019-04-28T04:41:43.449Z,102479.24
2019-04-28T04:44:11.843Z,102491.81
2019-04-28T04:46:47.237Z,102484.01
2019-04-28T04:49:16.604Z,102485.31
2019-04-28T04:51:45.999Z,102482.71
2019-04-28T04:54:15.331Z,102482.71
2019-04-28T04:56:44.654Z,102490.08
2019-04-28T04:59:14.035Z,102495.67
2019-04-28T05:02:29.586Z,102492.68
2019-04-28T05:05:00.428Z,102501.31
2019-04-28T05:07:29.991Z,102497.87
2019-04-28T05:09:59.565Z,102502.19
2019-04-28T05:12:30.632Z,102500.87
2019-04-28T05:15:00.556Z,102498.28
2019-04-28T05:17:30.192Z,102506.95
2019-04-28T05:20:01.456Z,102509.12
2019-04-28T05:22:33.051Z,102518.19
2019-04-28T05:25:08.028Z,102521.22
2019-04-28T05:27:37.346Z,102515.14
2019-04-28T05:30:07.128Z,102525.12
2019-04-28T05:32:44.590Z,102527.28
2019-04-28T05:35:07.675Z,102533.35
2019-04-28T05:37:37.015Z,102532.05
2019-04-28T05:40:06.447Z,102533.79
2019-04-28T05:42:35.772Z,102538.55
2019-04-28T05:45:05.393Z,102540.69
2019-04-28T05:47:34.739Z,102555.00
2019-04-28T05:50:10.652Z,102545.45
2019-04-28T05:53:01.883Z,102549.35
2019-04-28T05:55:39.390Z,102546.28
2019-04-28T05:58:23.237Z,102541.08
2019-04-28T06:01:16.907Z,102539.34
2019-04-28T06:03:46.821Z,102543.20
2019-04-28T06:06:16.167Z,102548.40
2019-04-28T06:09:01.023Z,102543.59
2019-04-28T06:11:39.650Z,102552.22
2019-04-28T06:14:09.945Z,102553.13
2019-04-28T06:16:40.610Z,102555.69
2019-04-28T06:19:10.445Z,102560.03
2019-04-28T06:21:39.819Z,102562.63
2019-04-28T06:24:09.165Z,102564.37
2019-04-28T06:26:38.525Z,102557.42
2019-04-28T06:29:07.905Z,102569.96
2019-04-28T06:31:37.240Z,102561.72
2019-04-28T06:34:06.609Z,102561.24
2019-04-28T06:36:35.978Z,102562.50
2019-04-28T06:39:07.931Z,102559.42
2019-04-28T06:41:37.361Z,102566.36
2019-04-28T06:44:06.914Z,102569.78
2019-04-28T06:46:36.252Z,102577.55
2019-04-28T06:49:05.723Z,102580.11
2019-04-28T06:51:35.121Z,102585.70
2019-04-28T06:54:04.643Z,102587.44
2019-04-28T06:56:34.067Z,102584.31
2019-04-28T06:59:03.451Z,102585.17
2019-04-28T07:01:32.883Z,102589.91
2019-04-28T07:04:02.227Z,102590.72
2019-04-28T07:06:31.704Z,102597.18
2019-04-28T07:09:01.055Z,102592.37
2019-04-28T07:11:30.388Z,102596.23
2019-04-28T07:13:59.824Z,102597.92
2019-04-28T07:16:29.648Z,102605.30
2019-04-28T07:18:59.039Z,102607.86
2019-04-28T07:21:38.981Z,102607.42
2019-04-28T07:24:08.358Z,102612.16
2019-04-28T07:26:37.707Z,102607.80
2019-04-28T07:29:07.138Z,102612.97
2019-04-28T07:31:36.507Z,102622.08
2019-04-28T07:34:06.090Z,102617.26
2019-04-28T07:36:35.518Z,102622.42
2019-04-28T07:39:06.915Z,102622.38
2019-04-28T07:41:36.315Z,102622.80
2019-04-28T07:44:05.709Z,102621.46
2019-04-28T07:46:35.166Z,102618.84
2019-04-28T07:49:04.665Z,102618.84
2019-04-28T07:52:05.040Z,102618.84
2019-04-28T07:54:34.523Z,102619.66
2019-04-28T07:57:03.977Z,102619.66
2019-04-28T07:59:33.518Z,102614.45
2019-04-28T08:02:02.939Z,102624.00
2019-04-28T08:04:32.315Z,102619.66
2019-04-28T08:07:01.737Z,102625.27
2019-04-28T08:09:31.131Z,102622.65
2019-04-28T08:12:00.544Z,102623.47
2019-04-28T08:14:29.911Z,102632.97
2019-04-28T08:16:59.260Z,102639.40
2019-04-28T08:19:28.662Z,102640.21
2019-04-28T08:21:58.058Z,102628.91
2019-04-28T08:24:33.749Z,102633.64
2019-04-28T08:27:03.129Z,102638.42
2019-04-28T08:29:32.498Z,102636.64
2019-04-28T08:32:18.353Z,102637.45
2019-04-28T08:34:47.778Z,102641.80
2019-04-28T08:37:17.219Z,102637.84
2019-04-28T08:39:46.596Z,102638.66
2019-04-28T08:42:16.006Z,102642.99
2019-04-28T08:44:45.389Z,102646.42
2019-04-28T08:47:14.720Z,102647.67
2019-04-28T08:49:44.093Z,102650.23
2019-04-28T08:52:13.488Z,102643.23
2019-04-28T08:54:42.843Z,102649.27
2019-04-28T08:57:12.205Z,102642.69
2019-04-28T08:59:41.554Z,102644.81
2019-04-28T09:02:10.931Z,102644.80
2019-04-28T09:04:40.300Z,102648.61
2019-04-28T09:07:09.636Z,102652.52
2019-04-28T09:09:39.023Z,102648.13
2019-04-28T09:12:08.331Z,102648.13
2019-04-28T09:14:37.697Z,102651.16
2019-04-28T09:17:07.022Z,102660.72
2019-04-28T09:19:36.379Z,102658.51
2019-04-28T09:22:06.128Z,102655.02
2019-04-28T09:24:35.490Z,102656.38
2019-04-28T09:27:04.878Z,102662.80
2019-04-28T09:29:34.212Z,102664.91
2019-04-28T09:32:03.630Z,102675.29
2019-04-28T09:34:32.977Z,102678.70
2019-04-28T09:37:02.340Z,102678.70
2019-04-28T09:39:45.437Z,102683.39
2019-04-28T09:42:32.230Z,102680.34
2019-04-28T09:45:02.276Z,102680.72
2019-04-28T09:47:31.648Z,102687.14
2019-04-28T09:50:00.997Z,102690.12
2019-04-28T09:52:30.402Z,102692.68
2019-04-28T09:54:59.805Z,102691.80
2019-04-28T09:57:29.153Z,102689.14
2019-04-28T09:59:58.513Z,102692.14
2019-04-28T10:02:27.881Z,102696.43
2019-04-28T10:04:57.209Z,102690.76
2019-04-28T10:07:26.576Z,102695.88
2019-04-28T10:09:55.992Z,102696.80
2019-04-28T10:12:27.327Z,102696.36
2019-04-28T10:14:56.438Z,102702.34
2019-04-28T10:17:25.773Z,102708.86
2019-04-28T10:19:55.150Z,102704.03
2019-04-28T10:22:24.520Z,102698.36
2019-04-28T10:24:53.870Z,102694.40
2019-04-28T10:27:23.253Z,102697.75
2019-04-28T10:29:52.587Z,102698.57
2019-04-28T10:32:21.983Z,102698.90
2019-04-28T10:34:55.081Z,102697.52
2019-04-28T10:37:22.437Z,102701.32
2019-04-28T10:39:58.415Z,102704.92
2019-04-28T10:42:27.747Z,102704.92
2019-04-28T10:44:57.121Z,102711.87
2019-04-28T10:47:26.685Z,102723.14
2019-04-28T10:49:56.584Z,102720.09
2019-04-28T10:52:25.980Z,102720.09
2019-04-28T10:54:55.371Z,102720.52
2019-04-28T10:57:24.709Z,102729.60
2019-04-28T10:59:54.102Z,102732.64
2019-04-28T11:02:23.468Z,102733.03
2019-04-28T11:05:10.530Z,102737.38
2019-04-28T11:07:39.978Z,102734.78
2019-04-28T11:10:15.757Z,102743.54
2019-04-28T11:12:45.266Z,102739.24
2019-04-28T11:15:23.304Z,102739.24
2019-04-28T11:17:52.653Z,102744.14
2019-04-28T11:20:25.079Z,102744.14
2019-04-28T11:22:53.229Z,102729.45
2019-04-28T11:25:22.555Z,102734.61
2019-04-28T11:27:51.928Z,102734.61
2019-04-28T11:30:21.453Z,102745.83
2019-04-28T11:33:15.590Z,102728.97
2019-04-28T11:35:45.047Z,102728.97
2019-04-28T11:38:14.376Z,102743.22
2019-04-28T11:40:43.738Z,102736.73
2019-04-28T11:43:13.126Z,102735.92
2019-04-28T11:45:42.528Z,102715.17
2019-04-28T11:48:11.948Z,102722.48
2019-04-28T11:50:41.267Z,102717.22
2019-04-28T11:53:10.641Z,102717.22
2019-04-28T11:55:40.007Z,102716.36
2019-04-28T11:58:09.379Z,102721.58
2019-04-28T12:00:38.866Z,102722.02
2019-04-28T12:03:08.429Z,102716.36
2019-04-28T12:05:43.988Z,102715.54
2019-04-28T12:08:13.379Z,102721.14
2019-04-28T12:10:51.095Z,102716.36
2019-04-28T12:13:48.809Z,102728.47
2019-04-28T12:16:35.761Z,102730.17
2019-04-28T12:19:24.114Z,102730.17
2019-04-28T12:21:53.415Z,102734.52
2019-04-28T12:24:22.827Z,102738.97
2019-04-28T12:26:52.188Z,102738.97
2019-04-28T12:29:21.585Z,102739.35
2019-04-28T12:31:50.920Z,102742.83
2019-04-28T12:34:20.286Z,102742.83
2019-04-28T12:36:49.648Z,102747.52
2019-04-28T12:39:19.012Z,102751.05
2019-04-28T12:41:48.350Z,102752.28
2019-04-28T12:44:17.727Z,102754.03
2019-04-28T12:46:47.072Z,102754.03
2019-04-28T12:49:22.275Z,102751.48
2019-04-28T12:51:51.642Z,102758.43
2019-04-28T12:54:22.963Z,102754.53
2019-04-28T12:56:52.325Z,102756.72
2019-04-28T12:59:26.971Z,102741.59
2019-04-28T13:02:13.859Z,102750.28
2019-04-28T13:04:52.551Z,102750.28
2019-04-28T13:07:21.962Z,102742.89
2019-04-28T13:09:51.306Z,102748.23
2019-04-28T13:12:20.664Z,102749.58
2019-04-28T13:14:50.011Z,102749.58
2019-04-28T13:17:19.360Z,102750.88
2019-04-28T13:19:48.704Z,102759.09
2019-04-28T13:22:18.049Z,102755.31
2019-04-28T13:24:47.405Z,102755.31
2019-04-28T13:27:16.754Z,102760.08
2019-04-28T13:29:46.164Z,102751.48
2019-04-28T13:32:15.507Z,102745.13
2019-04-28T13:34:44.833Z,102754.70
2019-04-28T13:37:14.202Z,102754.70
2019-04-28T13:39:52.671Z,102759.43
2019-04-28T13:42:22.050Z,102762.44
2019-04-28T13:44:58.454Z,102765.05
2019-04-28T13:47:27.841Z,102764.97
2019-04-28T13:50:02.212Z,102764.97
2019-04-28T13:52:31.874Z,102758.77
2019-04-28T13:55:20.214Z,102750.35
2019-04-28T13:57:49.692Z,102751.44
2019-04-28T14:00:21.877Z,102751.31
2019-04-28T14:03:02.033Z,102749.98
2019-04-28T14:05:53.188Z,102747.82
2019-04-28T14:08:28.521Z,102748.69
2019-04-28T14:10:57.871Z,102744.28
2019-04-28T14:13:27.440Z,102738.62
2019-04-28T14:15:57.010Z,102744.91
2019-04-28T14:18:26.473Z,102744.91
2019-04-28T14:20:56.192Z,102734.87
2019-04-28T14:23:25.700Z,102728.34
2019-04-28T14:25:55.223Z,102728.34
2019-04-28T14:28:24.737Z,102733.83
2019-04-28T14:30:54.241Z,102731.64
2019-04-28T14:33:23.673Z,102732.95
2019-04-28T14:35:53.214Z,102732.95
2019-04-28T14:38:22.823Z,102731.84
2019-04-28T14:40:52.380Z,102727.06
2019-04-28T14:43:21.898Z,102727.06
2019-04-28T14:45:51.404Z,102730.19
2019-04-28T14:48:20.925Z,102731.47
2019-04-28T14:50:50.435Z,102724.09
2019-04-28T14:53:19.955Z,102724.58
2019-04-28T14:55:49.509Z,102724.58
2019-04-28T14:58:18.996Z,102728.11
2019-04-28T15:00:53.260Z,102731.61
2019-04-28T15:03:23.450Z,102731.61
2019-04-28T15:06:08.337Z,102728.23
2019-04-28T15:08:59.685Z,102728.25
2019-04-28T15:11:33.220Z,102723.45
2019-04-28T15:14:02.839Z,102733.84
2019-04-28T15:16:32.476Z,102722.95
2019-04-28T15:19:01.960Z,102719.42
2019-04-28T15:21:31.410Z,102719.42
2019-04-28T15:24:00.717Z,102724.58
2019-04-28T15:26:30.214Z,102727.26
2019-04-28T15:28:59.761Z,102727.26
2019-04-28T15:31:29.307Z,102721.41
2019-04-28T15:33:58.796Z,102721.41
2019-04-28T15:36:28.163Z,102727.01
2019-04-28T15:38:57.588Z,102733.58
2019-04-28T15:41:27.012Z,102721.63
2019-04-28T15:43:56.405Z,102721.63
2019-04-28T15:46:25.765Z,102732.45
2019-04-28T15:48:55.214Z,102732.45
2019-04-28T15:51:24.597Z,102731.64
2019-04-28T15:53:54.018Z,102730.38
2019-04-28T15:56:48.149Z,102730.38
2019-04-28T15:59:18.454Z,102721.60
2019-04-28T16:01:49.046Z,102721.60
2019-04-28T16:04:18.728Z,102726.44
2019-04-28T16:06:48.187Z,102737.03
2019-04-28T16:09:17.652Z,102724.09
2019-04-28T16:11:47.193Z,102728.06
2019-04-28T16:14:16.535Z,102729.43
2019-04-28T16:16:45.943Z,102734.69
2019-04-28T16:19:15.329Z,102733.87
2019-04-28T16:21:44.723Z,102733.94
2019-04-28T16:24:14.219Z,102734.94
2019-04-28T16:26:43.623Z,102743.65
2019-04-28T16:29:13.107Z,102744.56
2019-04-28T16:31:42.491Z,102733.36
2019-04-28T16:34:11.871Z,102737.56
2019-04-28T16:36:41.302Z,102744.41
2019-04-28T16:39:10.881Z,102744.78
2019-04-28T16:41:42.264Z,102738.61
2019-04-28T16:44:28.535Z,102729.91
2019-04-28T16:46:57.992Z,102734.16
2019-04-28T16:49:27.415Z,102734.16
2019-04-28T16:51:56.738Z,102721.16
2019-04-28T16:54:26.107Z,102733.22
2019-04-28T16:57:11.294Z,102732.84
2019-04-28T16:59:56.454Z,102725.98
2019-04-28T17:02:34.460Z,102725.98
2019-04-28T17:05:03.834Z,102740.62
2019-04-28T17:07:33.175Z,102730.67
2019-04-28T17:10:02.568Z,102746.21
2019-04-28T17:12:31.930Z,102745.30
2019-04-28T17:15:01.302Z,102745.30
2019-04-28T17:17:30.660Z,102746.21
2019-04-28T17:20:00.095Z,102745.25
2019-04-28T17:22:29.591Z,102745.25
2019-04-28T17:24:59.061Z,102742.68
2019-04-28T17:27:28.489Z,102743.01
2019-04-28T17:29:57.850Z,102738.61
2019-04-28T17:32:27.327Z,102741.27
2019-04-28T17:34:58.095Z,102742.58
2019-04-28T17:37:27.879Z,102739.55
2019-04-28T17:39:57.349Z,102743.78
2019-04-28T17:42:26.769Z,102742.58
2019-04-28T17:44:56.269Z,102743.06
2019-04-28T17:47:25.690Z,102745.25
2019-04-28T17:49:55.455Z,102744.38
2019-04-28T17:52:24.988Z,102740.12
2019-04-28T17:54:54.329Z,102747.52
2019-04-28T17:57:23.871Z,102750.18
2019-04-28T17:59:55.331Z,102750.18
2019-04-28T18:03:39.326Z,102742.16
2019-04-28T18:06:18.496Z,102749.16
2019-04-28T18:08:47.914Z,102752.20
2019-04-28T18:11:17.573Z,102749.16
2019-04-28T18:13:46.976Z,102752.63
2019-04-28T18:16:40.983Z,102752.63
2019-04-28T18:19:11.870Z,102750.47
2019-04-28T18:21:41.231Z,102753.95
2019-04-28T18:24:10.618Z,102753.95
2019-04-28T18:26:40.025Z,102753.52
2019-04-28T18:29:09.360Z,102754.81
2019-04-28T18:31:56.415Z,102749.20
2019-04-28T18:34:35.631Z,102752.25
2019-04-28T18:37:33.197Z,102753.56
2019-04-28T18:40:39.757Z,102753.61
2019-04-28T18:43:30.860Z,102755.30
2019-04-28T18:46:00.327Z,102747.95
2019-04-28T18:48:29.693Z,102750.13
2019-04-28T18:50:59.090Z,102748.02
2019-04-28T18:53:28.427Z,102744.59
2019-04-28T18:55:57.855Z,102744.59
2019-04-28T18:58:27.211Z,102755.02
2019-04-28T19:01:05.705Z,102753.67
2019-04-28T19:03:35.187Z,102748.02
2019-04-28T19:06:04.940Z,102745.02
2019-04-28T19:08:49.011Z,102751.92
2019-04-28T19:11:38.903Z,102748.89
2019-04-28T19:14:24.198Z,102743.71
2019-04-28T19:17:12.518Z,102743.71
2019-04-28T19:19:42.423Z,102748.93
2019-04-28T19:22:11.857Z,102740.67
2019-04-28T19:24:41.244Z,102737.63
2019-04-28T19:27:10.633Z,102741.12
2019-04-28T19:29:40.031Z,102739.95
2019-04-28T19:32:09.421Z,102734.80
2019-04-28T19:34:38.816Z,102734.80
2019-04-28T19:37:08.248Z,102734.08
2019-04-28T19:39:40.768Z,102739.35
2019-04-28T19:42:08.732Z,102745.53
2019-04-28T19:44:38.179Z,102744.33
2019-04-28T19:47:07.631Z,102746.11
2019-04-28T19:49:37.040Z,102747.52
2019-04-28T19:52:06.526Z,102750.17
2019-04-28T19:54:38.297Z,102758.89
2019-04-28T19:57:17.155Z,102758.08
2019-04-28T20:00:03.958Z,102763.78
2019-04-28T20:02:35.159Z,102772.47
2019-04-28T20:05:04.970Z,102769.91
2019-04-28T20:07:34.407Z,102772.95
2019-04-28T20:10:03.834Z,102778.20
2019-04-28T20:12:33.207Z,102775.20
2019-04-28T20:15:02.626Z,102780.42
2019-04-28T20:17:32.004Z,102786.11
2019-04-28T20:20:01.375Z,102783.07
2019-04-28T20:22:30.899Z,102787.89
2019-04-28T20:25:00.335Z,102788.37
2019-04-28T20:27:29.673Z,102782.80
2019-04-28T20:29:59.174Z,102788.88
2019-04-28T20:32:32.263Z,102783.67
2019-04-28T20:35:01.674Z,102783.67
2019-04-28T20:37:39.101Z,102781.07
2019-04-28T20:40:13.699Z,102777.64
2019-04-28T20:42:54.724Z,102779.37
2019-04-28T20:45:24.133Z,102779.85
2019-04-28T20:47:53.598Z,102790.71
2019-04-28T20:50:22.988Z,102793.35
2019-04-28T20:52:52.371Z,102791.19
2019-04-28T20:55:21.825Z,102795.13
2019-04-28T20:57:51.248Z,102799.03
2019-04-28T21:00:20.601Z,102799.03
2019-04-28T21:02:49.992Z,102803.81
2019-04-28T21:05:19.377Z,102806.45
2019-04-28T21:07:48.743Z,102809.94
2019-04-28T21:10:18.076Z,102806.00
2019-04-28T21:12:47.460Z,102806.90
2019-04-28T21:15:16.850Z,102806.47
2019-04-28T21:17:46.231Z,102810.41
2019-04-28T21:20:15.683Z,102811.28
2019-04-28T21:22:45.062Z,102810.41
2019-04-28T21:25:14.411Z,102815.63
2019-04-28T21:27:43.792Z,102813.05
2019-04-28T21:30:13.181Z,102814.32
2019-04-28T21:32:42.525Z,102809.59
2019-04-28T21:35:11.887Z,102814.36
2019-04-28T21:37:42.747Z,102807.45
2019-04-28T21:40:13.792Z,102817.83
2019-04-28T21:43:08.039Z,102816.53
2019-04-28T21:46:14.584Z,102816.93
2019-04-28T21:48:46.384Z,102818.27
2019-04-28T21:51:16.104Z,102812.19
2019-04-28T21:53:45.441Z,102813.49
2019-04-28T21:56:14.817Z,102809.15
2019-04-28T21:58:44.165Z,102804.81
2019-04-28T22:01:17.397Z,102805.64
2019-04-28T22:03:47.086Z,102801.73
2019-04-28T22:06:16.490Z,102805.60
2019-04-28T22:08:45.848Z,102808.67
2019-04-28T22:11:15.234Z,102799.13
2019-04-28T22:13:44.572Z,102797.39
2019-04-28T22:16:13.945Z,102804.38
2019-04-28T22:18:43.350Z,102806.98
2019-04-28T22:21:12.725Z,102810.88
2019-04-28T22:23:57.986Z,102811.32
2019-04-28T22:26:43.348Z,102812.19
2019-04-28T22:29:12.825Z,102820.84
2019-04-28T22:31:42.307Z,102822.61
2019-04-28T22:34:12.285Z,102818.66
2019-04-28T22:36:41.629Z,102816.06
2019-04-28T22:39:11.093Z,102821.27
2019-04-28T22:41:40.493Z,102827.75
2019-04-28T22:44:09.945Z,102813.89
2019-04-28T22:46:39.429Z,102816.49
2019-04-28T22:49:08.805Z,102821.27
2019-04-28T22:51:38.159Z,102828.22
2019-04-28T22:54:21.896Z,102826.45
2019-04-28T22:57:25.181Z,102833.39
2019-04-28T22:59:54.854Z,102829.05
2019-04-28T23:02:24.223Z,102834.72
2019-04-28T23:04:59.502Z,102834.72
2019-04-28T23:07:28.895Z,102835.16
2019-04-28T23:09:58.242Z,102826.48
2019-04-28T23:12:27.590Z,102826.05
2019-04-28T23:14:56.919Z,102821.70
2019-04-28T23:17:26.494Z,102825.17
2019-04-28T23:19:55.845Z,102821.27
2019-04-28T23:22:31.404Z,102821.27
2019-04-28T23:25:00.743Z,102821.73
2019-04-28T23:27:30.092Z,102822.18
2019-04-28T23:29:59.430Z,102821.78
2019-04-28T23:32:31.649Z,102815.70
2019-04-28T23:34:59.891Z,102813.06
2019-04-28T23:37:29.206Z,102810.92
2019-04-28T23:39:58.563Z,102812.19
2019-04-28T23:42:39.098Z,102807.84
2019-04-28T23:45:12.087Z,102808.28
2019-04-28T23:47:40.322Z,102809.15
2019-04-28T23:50:12.072Z,102810.45
2019-04-28T23:52:53.671Z,102816.97
2019-04-28T23:55:24.645Z,102815.27
2019-04-28T23:57:54.009Z,102807.85
